KGCY/GCY METAR and TAF weather

Enter ICAO airport designator
Station Type Date Time Source
KGCY METAR 2019/02/22 23:15 UTC NOAA

KGCY 222315Z AUTO 00000KT 6SM BR FEW024 BKN065 OVC070 10/10 A3023 RMK A01


Station Type Date Time Source
KGCY Decoded METAR 2019/02/22 23:15 UTC NOAA

Station name not available
Feb 22, 2019 - 06:15 PM EST / 2019.02.22 2315 UTC
Wind: Calm:0
Visibility: 6 mile(s):0
Sky conditions: overcast
Weather: mist
Temperature: 50 F (10 C)
Dew Point: 50 F (10 C)
Relative Humidity: 100%
Pressure (altimeter): 30.23 in. Hg (1023 hPa)
ob: KGCY 222315Z AUTO 00000KT 6SM BR FEW024 BKN065 OVC070 10/10 A3023 RMK A01
cycle: 23

Station Type Date Time Source
KGCY TAF UTC NOAA

Error!


Example: see airport list